createdAt,value
2019-01-17T00:02:08.520Z,99532.94
2019-01-17T00:10:28.759Z,99503.70
2019-01-17T00:13:15.125Z,99499.76
2019-01-17T00:15:53.831Z,99491.83
2019-01-17T00:18:40.626Z,99504.50
2019-01-17T00:21:27.063Z,99501.50
2019-01-17T00:24:03.561Z,99499.31
2019-01-17T00:26:50.015Z,99495.05
2019-01-17T00:29:25.319Z,99498.98
2019-01-17T00:32:00.843Z,99509.80
2019-01-17T00:34:47.223Z,99500.27
2019-01-17T00:37:34.157Z,99490.20
2019-01-17T00:43:20.617Z,99472.44
2019-01-17T00:46:07.005Z,99480.31
2019-01-17T00:48:53.907Z,99479.83
2019-01-17T00:51:40.524Z,99480.20
2019-01-17T00:54:27.091Z,99467.10
2019-01-17T01:00:03.094Z,99443.32
2019-01-17T01:02:49.583Z,99446.63
2019-01-17T01:05:36.113Z,99453.20
2019-01-17T01:11:18.570Z,99440.58
2019-01-17T01:19:59.970Z,99456.28
2019-01-17T01:22:46.726Z,99453.20
2019-01-17T01:25:24.172Z,99457.30
2019-01-17T01:28:10.984Z,99467.38
2019-01-17T01:30:57.515Z,99462.29
2019-01-17T01:33:43.999Z,99449.77
2019-01-17T01:36:30.616Z,99440.33
2019-01-17T01:42:14.261Z,99427.34
2019-01-17T01:45:01.093Z,99433.75
2019-01-17T01:47:47.642Z,99435.37
2019-01-17T01:50:34.191Z,99428.94
2019-01-17T01:53:04.951Z,99425.52
2019-01-17T01:55:33.045Z,99422.07
2019-01-17T01:57:59.931Z,99428.98
2019-01-17T02:00:27.224Z,99426.36
2019-01-17T02:02:54.786Z,99427.69
2019-01-17T02:05:21.662Z,99430.23
2019-01-17T02:07:48.723Z,99425.39
2019-01-17T02:10:16.029Z,99430.13
2019-01-17T02:12:42.774Z,99430.86
2019-01-17T02:15:09.990Z,99423.16
2019-01-17T02:17:36.864Z,99421.17
2019-01-17T02:20:05.548Z,99415.09
2019-01-17T02:22:52.208Z,99409.58
2019-01-17T02:25:19.232Z,99409.02
2019-01-17T02:27:46.105Z,99406.00
2019-01-17T02:33:10.971Z,99407.59
2019-01-17T02:35:37.834Z,99394.42
2019-01-17T02:38:04.959Z,99387.66
2019-01-17T02:40:44.847Z,99398.77
2019-01-17T02:43:11.976Z,99395.62
2019-01-17T02:45:39.405Z,99400.66
2019-01-17T02:48:06.586Z,99392.25
2019-01-17T02:50:33.816Z,99381.14
2019-01-17T02:53:00.708Z,99388.43
2019-01-17T02:55:27.521Z,99376.53
2019-01-17T02:57:54.394Z,99371.66
2019-01-17T03:00:21.247Z,99380.75
2019-01-17T03:02:48.163Z,99375.86
2019-01-17T03:05:15.383Z,99374.61
2019-01-17T03:07:42.250Z,99373.80
2019-01-17T03:10:12.315Z,99369.89
2019-01-17T03:12:39.469Z,99365.91
2019-01-17T03:15:06.911Z,99358.81
2019-01-17T03:17:33.911Z,99355.86
2019-01-17T03:20:00.785Z,99365.24
2019-01-17T03:22:28.006Z,99360.84
2019-01-17T03:24:54.866Z,99360.78
2019-01-17T03:27:22.032Z,99351.16
2019-01-17T03:29:48.959Z,99358.95
2019-01-17T03:32:16.148Z,99357.18
2019-01-17T03:34:43.002Z,99365.68
2019-01-17T03:37:09.881Z,99363.19
2019-01-17T03:39:36.707Z,99363.96
2019-01-17T03:42:16.733Z,99362.27
2019-01-17T03:44:43.601Z,99358.22
2019-01-17T03:47:10.377Z,99350.79
2019-01-17T03:49:37.128Z,99358.63
2019-01-17T03:52:04.060Z,99354.52
2019-01-17T03:54:30.818Z,99351.91
2019-01-17T03:56:57.671Z,99355.08
2019-01-17T03:59:24.650Z,99360.95
2019-01-17T04:01:51.492Z,99356.66
2019-01-17T04:04:18.348Z,99359.70
2019-01-17T04:06:45.235Z,99350.05
2019-01-17T04:09:12.139Z,99347.56
2019-01-17T04:11:38.891Z,99353.03
2019-01-17T04:14:05.804Z,99355.11
2019-01-17T04:16:32.667Z,99359.46
2019-01-17T04:18:59.549Z,99356.09
2019-01-17T04:21:26.610Z,99359.44
2019-01-17T04:23:53.492Z,99362.92
2019-01-17T04:26:20.353Z,99362.06
2019-01-17T04:28:47.255Z,99355.94
2019-01-17T04:31:14.116Z,99353.33
2019-01-17T04:33:40.874Z,99347.61
2019-01-17T04:36:08.056Z,99352.91
2019-01-17T04:38:34.925Z,99352.98
2019-01-17T04:41:01.790Z,99358.83
2019-01-17T04:43:28.790Z,99364.44
2019-01-17T04:45:55.803Z,99364.05
2019-01-17T04:48:23.099Z,99359.28
2019-01-17T04:50:49.933Z,99369.17
2019-01-17T04:53:16.898Z,99361.70
2019-01-17T04:55:43.661Z,99368.54
2019-01-17T04:58:10.889Z,99365.52
2019-01-17T05:00:37.679Z,99363.64
2019-01-17T05:03:04.447Z,99360.78
2019-01-17T05:05:31.409Z,99355.06
2019-01-17T05:07:58.555Z,99359.41
2019-01-17T05:10:25.414Z,99364.41
2019-01-17T05:12:52.623Z,99358.88
2019-01-17T05:15:19.383Z,99357.31
2019-01-17T05:17:46.244Z,99360.41
2019-01-17T05:20:14.877Z,99371.25
2019-01-17T05:22:41.924Z,99368.55
2019-01-17T05:25:12.819Z,99359.00
2019-01-17T05:27:37.775Z,99372.16
2019-01-17T05:30:06.692Z,99373.38
2019-01-17T05:32:36.853Z,99368.25
2019-01-17T05:35:03.139Z,99368.38
2019-01-17T05:37:29.910Z,99359.19
2019-01-17T05:39:56.777Z,99371.41
2019-01-17T05:42:23.829Z,99367.14
2019-01-17T05:45:03.996Z,99366.57
2019-01-17T05:47:31.213Z,99366.80
2019-01-17T05:50:17.901Z,99369.72
2019-01-17T05:52:45.559Z,99366.31
2019-01-17T05:55:19.439Z,99367.45
2019-01-17T05:57:41.667Z,99362.72
2019-01-17T06:00:11.804Z,99369.17
2019-01-17T06:02:39.011Z,99366.40
2019-01-17T06:08:00.816Z,99372.79
2019-01-17T06:10:27.584Z,99377.02
2019-01-17T06:12:54.857Z,99377.25
2019-01-17T06:18:01.255Z,99375.98
2019-01-17T06:20:28.113Z,99383.30
2019-01-17T06:22:54.977Z,99381.06
2019-01-17T06:25:28.035Z,99384.59
2019-01-17T06:27:51.063Z,99395.76
2019-01-17T06:30:17.932Z,99395.03
2019-01-17T06:32:45.144Z,99394.45
2019-01-17T06:35:12.241Z,99395.51
2019-01-17T06:37:39.102Z,99392.70
2019-01-17T06:40:13.212Z,99407.27
2019-01-17T06:42:40.519Z,99411.66
2019-01-17T06:45:07.293Z,99408.50
2019-01-17T06:47:35.081Z,99413.41
2019-01-17T06:50:01.955Z,99418.53
2019-01-17T06:52:28.877Z,99414.04
2019-01-17T06:54:55.805Z,99415.89
2019-01-17T06:57:22.895Z,99412.04
2019-01-17T06:59:49.665Z,99413.73
2019-01-17T07:02:16.599Z,99413.31
2019-01-17T07:04:43.457Z,99424.16
2019-01-17T07:07:10.965Z,99420.19
2019-01-17T07:09:37.886Z,99410.53
2019-01-17T07:12:04.752Z,99410.19
2019-01-17T07:14:31.615Z,99414.65
2019-01-17T07:16:58.603Z,99425.84
2019-01-17T07:19:25.450Z,99423.17
2019-01-17T07:21:52.304Z,99431.83
2019-01-17T07:24:19.122Z,99442.81
2019-01-17T07:26:46.125Z,99442.95
2019-01-17T07:29:13.372Z,99453.81
2019-01-17T07:31:40.194Z,99450.72
2019-01-17T07:34:07.743Z,99452.54
2019-01-17T07:36:34.738Z,99462.91
2019-01-17T07:39:01.686Z,99459.20
2019-01-17T07:41:28.857Z,99467.69
2019-01-17T07:43:57.236Z,99464.56
2019-01-17T07:46:24.150Z,99462.72
2019-01-17T07:49:03.504Z,99455.33
2019-01-17T07:51:30.306Z,99459.56
2019-01-17T07:53:57.153Z,99464.75
2019-01-17T07:56:24.491Z,99464.71
2019-01-17T07:58:51.726Z,99468.70
2019-01-17T08:01:18.587Z,99474.20
2019-01-17T08:03:45.943Z,99477.56
2019-01-17T08:06:12.752Z,99491.45
2019-01-17T08:08:39.522Z,99479.00
2019-01-17T08:11:06.292Z,99485.09
2019-01-17T08:13:33.086Z,99492.23
2019-01-17T08:15:59.830Z,99497.46
2019-01-17T08:18:27.094Z,99500.38
2019-01-17T08:20:53.983Z,99504.68
2019-01-17T08:23:20.892Z,99501.79
2019-01-17T08:25:53.952Z,99502.92
2019-01-17T08:28:16.920Z,99500.97
2019-01-17T08:30:43.793Z,99497.98
2019-01-17T08:33:10.646Z,99502.92
2019-01-17T08:35:37.870Z,99512.11
2019-01-17T08:38:05.395Z,99506.61
2019-01-17T08:40:33.259Z,99507.57
2019-01-17T08:43:00.077Z,99507.47
2019-01-17T08:45:27.218Z,99501.35
2019-01-17T08:47:53.968Z,99513.17
2019-01-17T08:50:21.069Z,99503.14
2019-01-17T08:52:48.055Z,99514.00
2019-01-17T08:55:14.798Z,99523.41
2019-01-17T09:00:16.821Z,99527.78
2019-01-17T09:02:43.735Z,99529.91
2019-01-17T09:05:10.968Z,99530.25
2019-01-17T09:07:38.018Z,99542.02
2019-01-17T09:10:06.853Z,99540.70
2019-01-17T09:12:33.822Z,99546.83
2019-01-17T09:15:00.582Z,99545.31
2019-01-17T09:17:27.879Z,99552.16
2019-01-17T09:19:54.651Z,99541.26
2019-01-17T09:22:21.501Z,99551.19
2019-01-17T09:24:48.329Z,99548.09
2019-01-17T09:27:15.446Z,99551.33
2019-01-17T09:29:42.302Z,99547.70
2019-01-17T09:32:09.203Z,99571.88
2019-01-17T09:34:36.068Z,99563.89
2019-01-17T09:37:03.273Z,99561.02
2019-01-17T09:39:30.201Z,99566.25
2019-01-17T09:41:57.061Z,99569.35
2019-01-17T09:44:23.825Z,99571.48
2019-01-17T09:46:50.660Z,99579.72
2019-01-17T09:49:17.552Z,99574.22
2019-01-17T09:51:44.658Z,99579.38
2019-01-17T09:54:11.787Z,99570.45
2019-01-17T09:56:38.909Z,99573.92
2019-01-17T09:59:06.024Z,99573.52
2019-01-17T10:01:32.940Z,99566.41
2019-01-17T10:03:59.789Z,99557.84
2019-01-17T10:06:26.532Z,99561.63
2019-01-17T10:08:53.448Z,99567.27
2019-01-17T10:11:20.322Z,99571.91
2019-01-17T10:13:47.200Z,99570.73
2019-01-17T10:16:53.146Z,99558.97
2019-01-17T10:19:47.142Z,99565.25
2019-01-17T10:22:40.024Z,99565.73
2019-01-17T10:25:45.927Z,99567.31
2019-01-17T10:28:52.128Z,99558.83
2019-01-17T10:31:58.035Z,99558.64
2019-01-17T10:35:03.983Z,99568.43
2019-01-17T10:38:02.950Z,99568.28
2019-01-17T10:41:08.951Z,99560.43
2019-01-17T10:44:15.114Z,99555.88
2019-01-17T10:47:21.228Z,99544.37
2019-01-17T10:50:27.088Z,99541.41
2019-01-17T10:53:42.301Z,99544.15
2019-01-17T10:56:48.159Z,99534.09
2019-01-17T10:59:38.264Z,99533.27
2019-01-17T11:02:30.790Z,99540.38
2019-01-17T11:05:21.985Z,99536.66
2019-01-17T11:08:27.896Z,99541.67
2019-01-17T11:11:55.023Z,99537.00
2019-01-17T11:14:45.292Z,99526.13
2019-01-17T11:17:51.208Z,99528.06
2019-01-17T11:20:57.076Z,99520.42
2019-01-17T11:24:03.017Z,99523.81
2019-01-17T11:27:09.149Z,99512.86
2019-01-17T11:29:59.669Z,99507.79
2019-01-17T11:33:05.889Z,99516.30
2019-01-17T11:36:11.971Z,99512.56
2019-01-17T11:39:17.870Z,99507.22
2019-01-17T11:42:23.908Z,99501.27
2019-01-17T11:45:12.836Z,99499.27
2019-01-17T11:48:18.798Z,99502.93
2019-01-17T11:51:24.699Z,99503.89
2019-01-17T11:54:03.750Z,99501.64
2019-01-17T11:57:09.912Z,99499.85
2019-01-17T12:00:15.869Z,99498.34
2019-01-17T12:03:07.660Z,99490.56
2019-01-17T12:05:41.709Z,99487.56
2019-01-17T12:08:08.578Z,99486.77
2019-01-17T12:10:35.618Z,99490.08
2019-01-17T12:13:02.508Z,99484.86
2019-01-17T12:15:29.296Z,99481.42
2019-01-17T12:17:56.602Z,99482.43
2019-01-17T12:20:23.646Z,99485.00
2019-01-17T12:22:50.538Z,99481.63
2019-01-17T12:25:17.374Z,99481.48
2019-01-17T12:27:44.175Z,99476.09
2019-01-17T12:30:13.256Z,99477.95
2019-01-17T12:32:41.092Z,99478.85
2019-01-17T12:35:28.706Z,99474.69
2019-01-17T12:37:55.683Z,99471.95
2019-01-17T12:40:22.797Z,99466.07
2019-01-17T12:42:49.615Z,99465.11
2019-01-17T12:45:16.360Z,99460.06
2019-01-17T12:47:43.105Z,99469.36
2019-01-17T12:50:29.508Z,99455.75
2019-01-17T12:52:56.284Z,99447.88
2019-01-17T12:55:23.433Z,99452.05
2019-01-17T12:57:50.231Z,99441.75
2019-01-17T13:00:18.893Z,99435.17
2019-01-17T13:02:45.634Z,99436.27
2019-01-17T13:05:12.689Z,99433.09
2019-01-17T13:07:39.429Z,99421.81
2019-01-17T13:10:08.193Z,99423.69
2019-01-17T13:12:35.161Z,99413.02
2019-01-17T13:15:01.917Z,99407.18
2019-01-17T13:17:28.632Z,99409.42
2019-01-17T13:19:55.527Z,99421.07
2019-01-17T13:22:22.279Z,99408.98
2019-01-17T13:24:49.393Z,99410.85
2019-01-17T13:27:16.340Z,99413.05
2019-01-17T13:29:43.202Z,99409.84
2019-01-17T13:32:10.358Z,99407.01
2019-01-17T13:34:37.144Z,99405.17
2019-01-17T13:37:04.026Z,99405.05
2019-01-17T13:39:31.192Z,99405.91
2019-01-17T13:41:58.956Z,99405.50
2019-01-17T13:44:26.941Z,99406.36
2019-01-17T13:46:53.689Z,99405.30
2019-01-17T13:49:20.465Z,99401.05
2019-01-17T13:51:47.199Z,99411.88
2019-01-17T13:54:13.919Z,99402.02
2019-01-17T13:56:40.779Z,99402.77
2019-01-17T13:59:07.785Z,99405.53
2019-01-17T14:01:34.537Z,99409.99
2019-01-17T14:04:01.337Z,99410.73
2019-01-17T14:06:28.345Z,99411.47
2019-01-17T14:08:55.519Z,99413.80
2019-01-17T14:11:22.329Z,99407.13
2019-01-17T14:13:49.066Z,99407.09
2019-01-17T14:16:15.795Z,99404.03
2019-01-17T14:18:42.587Z,99398.14
2019-01-17T14:21:09.606Z,99397.15
2019-01-17T14:23:36.333Z,99407.39
2019-01-17T14:26:03.117Z,99403.99
2019-01-17T14:28:30.187Z,99403.14
2019-01-17T14:30:57.015Z,99406.43
2019-01-17T14:33:23.795Z,99401.79
2019-01-17T14:35:50.932Z,99393.73
2019-01-17T14:38:17.662Z,99397.47
2019-01-17T14:40:44.848Z,99390.87
2019-01-17T14:43:11.567Z,99390.57
2019-01-17T14:45:38.348Z,99394.10
2019-01-17T14:48:05.180Z,99393.28
2019-01-17T14:50:32.019Z,99386.75
2019-01-17T14:52:58.803Z,99388.31
2019-01-17T14:55:25.780Z,99382.92
2019-01-17T14:57:53.012Z,99374.31
2019-01-17T15:00:22.179Z,99377.98
2019-01-17T15:02:49.404Z,99373.41
2019-01-17T15:05:16.246Z,99378.58
2019-01-17T15:07:43.006Z,99375.79
2019-01-17T15:10:12.955Z,99369.56
2019-01-17T15:12:39.716Z,99370.41
2019-01-17T15:15:26.032Z,99371.82
2019-01-17T15:17:52.864Z,99378.45
2019-01-17T15:20:19.718Z,99379.77
2019-01-17T15:22:48.119Z,99376.70
2019-01-17T15:25:14.852Z,99377.83
2019-01-17T15:27:41.933Z,99374.31
2019-01-17T15:30:11.995Z,99369.11
2019-01-17T15:32:39.340Z,99365.73
2019-01-17T15:35:06.777Z,99364.97
2019-01-17T15:37:34.018Z,99368.59
2019-01-17T15:40:00.869Z,99353.72
2019-01-17T15:42:28.098Z,99359.02
2019-01-17T15:44:54.895Z,99356.17
2019-01-17T15:47:22.037Z,99357.67
2019-01-17T15:49:48.764Z,99349.59
2019-01-17T15:52:15.576Z,99349.89
2019-01-17T15:54:42.614Z,99348.40
2019-01-17T15:57:09.722Z,99352.42
2019-01-17T15:59:36.788Z,99347.90
2019-01-17T16:02:03.795Z,99346.17
2019-01-17T16:04:30.617Z,99352.21
2019-01-17T16:06:57.839Z,99344.75
2019-01-17T16:09:24.842Z,99345.08
2019-01-17T16:11:51.573Z,99353.37
2019-01-17T16:14:18.736Z,99344.89
2019-01-17T16:16:48.382Z,99344.72
2019-01-17T16:19:14.113Z,99338.17
2019-01-17T16:21:40.789Z,99334.44
2019-01-17T16:24:07.652Z,99335.84
2019-01-17T16:26:34.705Z,99336.31
2019-01-17T16:29:01.530Z,99338.59
2019-01-17T16:31:28.520Z,99329.89
2019-01-17T16:33:55.248Z,99338.86
2019-01-17T16:36:22.165Z,99337.84
2019-01-17T16:38:49.344Z,99346.52
2019-01-17T16:41:17.532Z,99349.36
2019-01-17T16:43:44.757Z,99348.02
2019-01-17T16:46:11.564Z,99348.79
2019-01-17T16:48:38.283Z,99344.22
2019-01-17T16:51:05.072Z,99342.79
2019-01-17T16:53:31.831Z,99337.31
2019-01-17T16:55:58.533Z,99351.09
2019-01-17T16:58:25.314Z,99340.18
2019-01-17T17:00:52.206Z,99341.17
2019-01-17T17:03:19.106Z,99341.90
2019-01-17T17:05:46.283Z,99339.98
2019-01-17T17:08:13.181Z,99340.08
2019-01-17T17:10:40.026Z,99340.08
2019-01-17T17:13:13.527Z,99338.58
2019-01-17T17:15:40.363Z,99335.15
2019-01-17T17:18:07.071Z,99324.31
2019-01-17T17:20:33.949Z,99328.70
2019-01-17T17:23:01.250Z,99334.89
2019-01-17T17:25:27.976Z,99337.91
2019-01-17T17:27:55.690Z,99337.97
2019-01-17T17:30:24.895Z,99340.16
2019-01-17T17:32:51.746Z,99343.30
2019-01-17T17:35:18.543Z,99337.95
2019-01-17T17:37:45.551Z,99341.09
2019-01-17T17:40:17.977Z,99352.56
2019-01-17T17:42:45.143Z,99360.83
2019-01-17T17:45:11.986Z,99370.88
2019-01-17T17:47:38.843Z,99364.31
2019-01-17T17:50:07.160Z,99387.59
2019-01-17T17:52:33.896Z,99384.30
2019-01-17T17:55:00.651Z,99380.75
2019-01-17T17:57:27.479Z,99378.05
2019-01-17T17:59:54.315Z,99382.93
2019-01-17T18:05:14.516Z,99368.32
2019-01-17T18:07:41.334Z,99367.26
2019-01-17T18:10:10.406Z,99379.83
2019-01-17T18:12:37.314Z,99376.66
2019-01-17T18:15:05.719Z,99384.02
2019-01-17T18:17:32.513Z,99392.22
2019-01-17T18:19:59.763Z,99403.78
2019-01-17T18:22:26.591Z,99405.55
2019-01-17T18:24:53.261Z,99413.36
2019-01-17T18:27:19.936Z,99421.98
2019-01-17T18:29:47.016Z,99424.59
2019-01-17T18:32:13.731Z,99429.33
2019-01-17T18:34:40.530Z,99429.87
2019-01-17T18:37:07.278Z,99435.05
2019-01-17T18:39:33.905Z,99443.61
2019-01-17T18:42:03.197Z,99450.88
2019-01-17T18:44:30.351Z,99450.86
2019-01-17T18:46:57.377Z,99457.00
2019-01-17T18:49:24.392Z,99455.81
2019-01-17T18:51:51.475Z,99455.75
2019-01-17T18:54:18.513Z,99456.27
2019-01-17T18:56:45.356Z,99463.72
2019-01-17T18:59:12.120Z,99471.45
2019-01-17T19:01:38.998Z,99474.92
2019-01-17T19:04:05.959Z,99471.00
2019-01-17T19:06:33.256Z,99464.93
2019-01-17T19:09:00.253Z,99474.47
2019-01-17T19:11:27.855Z,99482.67
2019-01-17T19:13:55.779Z,99489.16
2019-01-17T19:16:22.667Z,99502.95
2019-01-17T19:18:49.509Z,99505.51
2019-01-17T19:21:17.190Z,99512.35
2019-01-17T19:23:44.038Z,99511.93
2019-01-17T19:26:11.159Z,99523.62
2019-01-17T19:28:38.195Z,99525.78
2019-01-17T19:31:05.254Z,99531.02
2019-01-17T19:33:32.440Z,99550.03
2019-01-17T19:35:59.280Z,99551.86
2019-01-17T19:38:26.527Z,99554.41
2019-01-17T19:40:53.320Z,99559.11
2019-01-17T19:43:20.487Z,99561.67
2019-01-17T19:45:48.059Z,99565.25
2019-01-17T19:48:15.312Z,99569.56
2019-01-17T19:50:43.310Z,99579.50
2019-01-17T19:53:10.286Z,99588.52
2019-01-17T19:55:38.563Z,99587.22
2019-01-17T19:58:05.341Z,99592.86
2019-01-17T20:00:32.861Z,99598.55
2019-01-17T20:03:00.931Z,99608.45
2019-01-17T20:05:30.608Z,99613.28
2019-01-17T20:07:57.985Z,99620.64
2019-01-17T20:10:27.219Z,99633.10
2019-01-17T20:12:57.390Z,99629.66
2019-01-17T20:15:24.402Z,99630.08
2019-01-17T20:23:00.064Z,99651.18
2019-01-17T20:25:26.821Z,99648.09
2019-01-17T20:27:53.671Z,99665.91
2019-01-17T20:35:58.621Z,99667.66
2019-01-17T20:38:25.480Z,99672.84
2019-01-17T20:40:58.044Z,99675.42
2019-01-17T20:43:21.151Z,99677.96
2019-01-17T20:45:48.275Z,99687.56
2019-01-17T20:48:15.210Z,99686.27
2019-01-17T20:50:42.130Z,99688.86
2019-01-17T20:53:09.011Z,99696.22
2019-01-17T20:55:35.998Z,99698.30
2019-01-17T20:58:02.951Z,99705.59
2019-01-17T21:01:09.540Z,99697.86
2019-01-17T21:03:36.452Z,99705.16
2019-01-17T21:06:03.986Z,99706.05
2019-01-17T21:08:31.160Z,99708.20
2019-01-17T21:10:58.365Z,99716.92
2019-01-17T21:13:25.222Z,99719.47
2019-01-17T21:15:52.233Z,99726.36
2019-01-17T21:18:19.158Z,99725.06
2019-01-17T21:20:46.007Z,99726.37
2019-01-17T21:23:12.864Z,99727.25
2019-01-17T21:25:39.681Z,99729.91
2019-01-17T21:28:06.640Z,99732.94
2019-01-17T21:30:33.509Z,99741.21
2019-01-17T21:33:06.556Z,99743.85
2019-01-17T21:35:29.284Z,99750.30
2019-01-17T21:37:56.137Z,99749.05
2019-01-17T21:40:23.122Z,99750.30
2019-01-17T21:42:49.872Z,99760.30
2019-01-17T21:45:17.159Z,99759.91
2019-01-17T21:47:44.016Z,99770.73
2019-01-17T21:50:13.532Z,99773.83
2019-01-17T21:52:40.691Z,99775.56
2019-01-17T21:55:07.539Z,99777.77
2019-01-17T21:57:34.188Z,99770.41
2019-01-17T22:00:01.707Z,99779.97
2019-01-17T22:02:28.616Z,99782.13
2019-01-17T22:04:55.461Z,99789.60
2019-01-17T22:07:22.605Z,99787.93
2019-01-17T22:09:49.898Z,99792.70
2019-01-17T22:12:16.998Z,99787.08
2019-01-17T22:14:44.160Z,99795.78
2019-01-17T22:17:11.056Z,99799.25
2019-01-17T22:19:37.966Z,99810.50
2019-01-17T22:22:04.834Z,99803.13
2019-01-17T22:24:31.807Z,99816.55
2019-01-17T22:26:59.295Z,99817.84
2019-01-17T22:29:26.628Z,99812.27
2019-01-17T22:31:53.613Z,99823.90
2019-01-17T22:34:20.467Z,99812.66
2019-01-17T22:36:47.266Z,99819.09
2019-01-17T22:39:14.184Z,99834.67
2019-01-17T22:41:40.931Z,99829.05
2019-01-17T22:44:07.895Z,99841.17
2019-01-17T22:46:34.864Z,99836.83
2019-01-17T22:49:02.098Z,99843.32
2019-01-17T22:51:29.233Z,99849.34
2019-01-17T22:53:56.446Z,99842.84
2019-01-17T22:56:23.304Z,99853.71
2019-01-17T22:58:50.068Z,99860.62
2019-01-17T23:01:59.425Z,99858.47
2019-01-17T23:04:26.655Z,99853.66
2019-01-17T23:06:53.716Z,99846.79
2019-01-17T23:09:20.759Z,99848.94
2019-01-17T23:11:47.859Z,99855.87
2019-01-17T23:14:14.755Z,99860.67
2019-01-17T23:16:41.925Z,99867.99
2019-01-17T23:19:08.676Z,99865.39
2019-01-17T23:21:35.573Z,99872.75
2019-01-17T23:24:02.469Z,99878.85
2019-01-17T23:26:29.294Z,99895.39
2019-01-17T23:28:56.131Z,99895.06
2019-01-17T23:31:22.914Z,99889.05
2019-01-17T23:33:49.747Z,99900.72
2019-01-17T23:36:16.580Z,99913.25
2019-01-17T23:38:43.548Z,99904.59
2019-01-17T23:41:10.390Z,99902.02
2019-01-17T23:43:37.567Z,99900.29
2019-01-17T23:46:04.416Z,99911.52
2019-01-17T23:48:31.277Z,99911.50
2019-01-17T23:50:58.007Z,99911.07
2019-01-17T23:53:44.330Z,99924.03
2019-01-17T23:56:11.373Z,99917.13
2019-01-17T23:58:38.118Z,99927.92
